sensor_id;sensor_type;location;lat;lon;timestamp;pressure;altitude;pressure_sealevel;temperature;humidity
45541;BME280;31265;49.680;8.608;2023-02-23T00:00:48;100243.66;;;8.71;100.00
45541;BME280;31265;49.680;8.608;2023-02-23T00:03:17;100235.69;;;8.68;100.00
45541;BME280;31265;49.680;8.608;2023-02-23T00:05:47;100239.78;;;8.67;100.00
45541;BME280;31265;49.680;8.608;2023-02-23T00:08:15;100239.56;;;8.65;100.00
45541;BME280;31265;49.680;8.608;2023-02-23T00:10:45;100233.13;;;8.62;100.00
45541;BME280;31265;49.680;8.608;2023-02-23T00:13:14;100240.69;;;8.61;100.00
45541;BME280;31265;49.680;8.608;2023-02-23T00:15:42;100236.25;;;8.58;100.00
45541;BME280;31265;49.680;8.608;2023-02-23T00:18:10;100241.22;;;8.68;100.00
45541;BME280;31265;49.680;8.608;2023-02-23T00:20:40;100235.34;;;8.64;100.00
45541;BME280;31265;49.680;8.608;2023-02-23T00:23:13;100234.75;;;8.57;100.00
45541;BME280;31265;49.680;8.608;2023-02-23T00:25:42;100237.91;;;8.54;100.00
45541;BME280;31265;49.680;8.608;2023-02-23T00:28:14;100240.66;;;8.54;100.00
45541;BME280;31265;49.680;8.608;2023-02-23T00:30:43;100248.78;;;8.52;100.00
45541;BME280;31265;49.680;8.608;2023-02-23T00:33:12;100249.31;;;8.50;100.00
45541;BME280;31265;49.680;8.608;2023-02-23T00:35:41;100246.00;;;8.52;100.00
45541;BME280;31265;49.680;8.608;2023-02-23T00:38:11;100249.16;;;8.56;100.00
45541;BME280;31265;49.680;8.608;2023-02-23T00:40:40;100248.59;;;8.57;100.00
45541;BME280;31265;49.680;8.608;2023-02-23T00:43:09;100249.16;;;8.56;100.00
45541;BME280;31265;49.680;8.608;2023-02-23T00:45:39;100246.19;;;8.54;100.00
45541;BME280;31265;49.680;8.608;2023-02-23T00:48:08;100247.47;;;8.53;100.00
45541;BME280;31265;49.680;8.608;2023-02-23T00:50:38;100248.03;;;8.51;100.00
45541;BME280;31265;49.680;8.608;2023-02-23T00:53:07;100244.72;;;8.53;100.00
45541;BME280;31265;49.680;8.608;2023-02-23T00:55:39;100247.84;;;8.49;100.00
45541;BME280;31265;49.680;8.608;2023-02-23T00:58:09;100238.09;;;8.56;100.00
45541;BME280;31265;49.680;8.608;2023-02-23T01:00:42;100241.78;;;8.51;100.00
45541;BME280;31265;49.680;8.608;2023-02-23T01:03:10;100247.66;;;8.47;100.00
45541;BME280;31265;49.680;8.608;2023-02-23T01:05:39;100251.72;;;8.46;100.00
45541;BME280;31265;49.680;8.608;2023-02-23T01:08:08;100239.16;;;8.45;100.00
45541;BME280;31265;49.680;8.608;2023-02-23T01:10:41;100248.94;;;8.46;100.00
45541;BME280;31265;49.680;8.608;2023-02-23T01:13:11;100244.69;;;8.45;100.00
45541;BME280;31265;49.680;8.608;2023-02-23T01:15:42;100235.84;;;8.47;100.00
45541;BME280;31265;49.680;8.608;2023-02-23T01:18:15;100243.97;;;8.45;100.00
45541;BME280;31265;49.680;8.608;2023-02-23T01:20:43;100244.16;;;8.47;100.00
45541;BME280;31265;49.680;8.608;2023-02-23T01:23:13;100244.88;;;8.47;100.00
45541;BME280;31265;49.680;8.608;2023-02-23T01:25:43;100245.63;;;8.48;100.00
45541;BME280;31265;49.680;8.608;2023-02-23T01:28:12;100242.13;;;8.47;100.00
45541;BME280;31265;49.680;8.608;2023-02-23T01:30:42;100244.88;;;8.47;100.00
45541;BME280;31265;49.680;8.608;2023-02-23T01:33:12;100247.47;;;8.45;100.00
45541;BME280;31265;49.680;8.608;2023-02-23T01:35:40;100235.50;;;8.50;100.00
45541;BME280;31265;49.680;8.608;2023-02-23T01:38:11;100239.75;;;8.51;100.00
45541;BME280;31265;49.680;8.608;2023-02-23T01:40:41;100241.22;;;8.52;100.00
45541;BME280;31265;49.680;8.608;2023-02-23T01:43:16;100229.22;;;8.50;100.00
45541;BME280;31265;49.680;8.608;2023-02-23T01:45:48;100235.84;;;8.47;100.00
45541;BME280;31265;49.680;8.608;2023-02-23T01:48:19;100236.06;;;8.49;100.00
45541;BME280;31265;49.680;8.608;2023-02-23T01:50:52;100229.59;;;8.46;100.00
45541;BME280;31265;49.680;8.608;2023-02-23T01:53:22;100236.59;;;8.47;100.00
45541;BME280;31265;49.680;8.608;2023-02-23T01:55:54;100236.41;;;8.45;100.00
45541;BME280;31265;49.680;8.608;2023-02-23T01:58:26;100231.44;;;8.44;100.00
45541;BME280;31265;49.680;8.608;2023-02-23T02:00:58;100227.75;;;8.41;100.00
45541;BME280;31265;49.680;8.608;2023-02-23T02:03:31;100230.50;;;8.41;100.00
45541;BME280;31265;49.680;8.608;2023-02-23T02:06:03;100231.78;;;8.40;100.00
45541;BME280;31265;49.680;8.608;2023-02-23T02:08:32;100222.00;;;8.39;100.00
45541;BME280;31265;49.680;8.608;2023-02-23T02:11:01;100226.25;;;8.40;100.00
45541;BME280;31265;49.680;8.608;2023-02-23T02:13:35;100231.56;;;8.38;100.00
45541;BME280;31265;49.680;8.608;2023-02-23T02:19:43;100231.38;;;8.36;100.00
45541;BME280;31265;49.680;8.608;2023-02-23T02:22:32;100228.63;;;8.36;100.00
45541;BME280;31265;49.680;8.608;2023-02-23T02:25:23;100224.75;;;8.39;100.00
45541;BME280;31265;49.680;8.608;2023-02-23T02:28:13;100219.22;;;8.39;100.00
45541;BME280;31265;49.680;8.608;2023-02-23T02:31:06;100217.22;;;8.39;100.00
45541;BME280;31265;49.680;8.608;2023-02-23T02:37:11;100213.50;;;8.37;100.00
45541;BME280;31265;49.680;8.608;2023-02-23T02:39:54;100214.22;;;8.37;100.00
45541;BME280;31265;49.680;8.608;2023-02-23T02:42:56;100212.78;;;8.36;100.00
45541;BME280;31265;49.680;8.608;2023-02-23T02:45:29;100217.22;;;8.39;100.00
45541;BME280;31265;49.680;8.608;2023-02-23T02:48:05;100212.78;;;8.36;100.00
45541;BME280;31265;49.680;8.608;2023-02-23T02:50:42;100205.94;;;8.37;100.00
45541;BME280;31265;49.680;8.608;2023-02-23T02:53:19;100206.34;;;8.42;100.00
45541;BME280;31265;49.680;8.608;2023-02-23T02:55:51;100205.63;;;8.41;100.00
45541;BME280;31265;49.680;8.608;2023-02-23T02:58:22;100207.63;;;8.40;100.00
45541;BME280;31265;49.680;8.608;2023-02-23T03:00:51;100204.13;;;8.40;100.00
45541;BME280;31265;49.680;8.608;2023-02-23T03:03:39;100206.91;;;8.40;100.00
45541;BME280;31265;49.680;8.608;2023-02-23T03:06:28;100203.59;;;8.42;100.00
45541;BME280;31265;49.680;8.608;2023-02-23T03:09:26;100199.34;;;8.40;100.00
45541;BME280;31265;49.680;8.608;2023-02-23T03:12:26;100205.41;;;8.39;100.00
45541;BME280;31265;49.680;8.608;2023-02-23T03:15:28;100203.91;;;8.38;100.00
45541;BME280;31265;49.680;8.608;2023-02-23T03:18:37;100198.94;;;8.36;100.00
45541;BME280;31265;49.680;8.608;2023-02-23T03:21:33;100202.25;;;8.35;100.00
45541;BME280;31265;49.680;8.608;2023-02-23T03:24:29;100202.25;;;8.35;100.00
45541;BME280;31265;49.680;8.608;2023-02-23T03:27:22;100205.63;;;8.41;100.00
45541;BME280;31265;49.680;8.608;2023-02-23T03:30:18;100211.16;;;8.41;100.00
45541;BME280;31265;49.680;8.608;2023-02-23T03:33:11;100199.88;;;8.39;100.00
45541;BME280;31265;49.680;8.608;2023-02-23T03:36:02;100208.16;;;8.39;100.00
45541;BME280;31265;49.680;8.608;2023-02-23T03:38:55;100203.41;;;8.39;100.00
45541;BME280;31265;49.680;8.608;2023-02-23T03:41:45;100207.81;;;8.43;100.00
45541;BME280;31265;49.680;8.608;2023-02-23T03:44:38;100207.81;;;8.43;100.00
45541;BME280;31265;49.680;8.608;2023-02-23T03:47:32;100205.97;;;8.45;100.00
45541;BME280;31265;49.680;8.608;2023-02-23T03:50:24;100213.19;;;8.48;100.00
45541;BME280;31265;49.680;8.608;2023-02-23T03:53:13;100211.72;;;8.47;100.00
45541;BME280;31265;49.680;8.608;2023-02-23T03:56:02;100209.66;;;8.48;100.00
45541;BME280;31265;49.680;8.608;2023-02-23T03:58:56;100205.97;;;8.45;100.00
45541;BME280;31265;49.680;8.608;2023-02-23T04:01:45;100203.22;;;8.45;100.00
45541;BME280;31265;49.680;8.608;2023-02-23T04:04:32;100215.56;;;8.44;100.00
45541;BME280;31265;49.680;8.608;2023-02-23T04:07:18;100213.34;;;8.43;100.00
45541;BME280;31265;49.680;8.608;2023-02-23T04:10:05;100218.16;;;8.42;100.00
45541;BME280;31265;49.680;8.608;2023-02-23T04:12:56;100209.84;;;8.42;100.00
45541;BME280;31265;49.680;8.608;2023-02-23T04:15:47;100205.63;;;8.41;100.00
45541;BME280;31265;49.680;8.608;2023-02-23T04:18:22;100210.41;;;8.40;100.00
45541;BME280;31265;49.680;8.608;2023-02-23T04:20:53;100208.94;;;8.39;100.00
45541;BME280;31265;49.680;8.608;2023-02-23T04:23:21;100208.16;;;8.39;100.00
45541;BME280;31265;49.680;8.608;2023-02-23T04:25:51;100210.94;;;8.39;100.00
45541;BME280;31265;49.680;8.608;2023-02-23T04:28:20;100212.19;;;8.38;100.00
45541;BME280;31265;49.680;8.608;2023-02-23T04:30:51;100212.97;;;8.38;100.00
45541;BME280;31265;49.680;8.608;2023-02-23T04:33:20;100206.69;;;8.38;100.00
45541;BME280;31265;49.680;8.608;2023-02-23T04:35:51;100210.19;;;8.38;100.00
45541;BME280;31265;49.680;8.608;2023-02-23T04:38:20;100212.44;;;8.40;100.00
45541;BME280;31265;49.680;8.608;2023-02-23T04:40:49;100216.69;;;8.41;100.00
45541;BME280;31265;49.680;8.608;2023-02-23T04:43:18;100220.72;;;8.40;100.00
45541;BME280;31265;49.680;8.608;2023-02-23T04:45:46;100220.00;;;8.39;100.00
45541;BME280;31265;49.680;8.608;2023-02-23T04:48:16;100216.69;;;8.41;100.00
45541;BME280;31265;49.680;8.608;2023-02-23T04:50:45;100223.69;;;8.42;100.00
45541;BME280;31265;49.680;8.608;2023-02-23T04:53:15;100224.41;;;8.43;100.00
45541;BME280;31265;49.680;8.608;2023-02-23T04:55:43;100224.22;;;8.40;100.00
45541;BME280;31265;49.680;8.608;2023-02-23T04:58:13;100228.47;;;8.42;100.00
45541;BME280;31265;49.680;8.608;2023-02-23T05:00:41;100225.72;;;8.42;100.00
45541;BME280;31265;49.680;8.608;2023-02-23T05:03:10;100230.69;;;8.43;100.00
45541;BME280;31265;49.680;8.608;2023-02-23T05:05:40;100226.25;;;8.40;100.00
45541;BME280;31265;49.680;8.608;2023-02-23T05:08:09;100226.25;;;8.40;100.00
45541;BME280;31265;49.680;8.608;2023-02-23T05:10:37;100223.47;;;8.40;100.00
45541;BME280;31265;49.680;8.608;2023-02-23T05:13:06;100230.28;;;8.39;100.00
45541;BME280;31265;49.680;8.608;2023-02-23T05:15:34;100235.09;;;8.38;100.00
45541;BME280;31265;49.680;8.608;2023-02-23T05:18:03;100230.13;;;8.45;100.00
45541;BME280;31265;49.680;8.608;2023-02-23T05:20:33;100229.59;;;8.46;100.00
45541;BME280;31265;49.680;8.608;2023-02-23T05:23:02;100232.56;;;8.48;100.00
45541;BME280;31265;49.680;8.608;2023-02-23T05:25:30;100228.66;;;8.44;100.00
45541;BME280;31265;49.680;8.608;2023-02-23T05:27:59;100213.34;;;8.43;100.00
45541;BME280;31265;49.680;8.608;2023-02-23T05:30:29;100222.75;;;8.39;100.00
45541;BME280;31265;49.680;8.608;2023-02-23T05:32:59;100229.22;;;8.42;100.00
45541;BME280;31265;49.680;8.608;2023-02-23T05:35:27;100224.03;;;8.38;100.00
45541;BME280;31265;49.680;8.608;2023-02-23T05:37:56;100221.06;;;8.36;100.00
45541;BME280;31265;49.680;8.608;2023-02-23T05:40:25;100225.09;;;8.35;100.00
45541;BME280;31265;49.680;8.608;2023-02-23T05:42:57;100228.63;;;8.36;100.00
45541;BME280;31265;49.680;8.608;2023-02-23T05:45:26;100231.38;;;8.36;100.00
45541;BME280;31265;49.680;8.608;2023-02-23T05:47:56;100238.38;;;8.37;100.00
45541;BME280;31265;49.680;8.608;2023-02-23T05:50:25;100235.44;;;8.35;100.00
45541;BME280;31265;49.680;8.608;2023-02-23T05:52:53;100234.88;;;8.36;100.00
45541;BME280;31265;49.680;8.608;2023-02-23T05:55:22;100234.31;;;8.38;100.00
45541;BME280;31265;49.680;8.608;2023-02-23T05:57:53;100229.91;;;8.35;100.00
45541;BME280;31265;49.680;8.608;2023-02-23T06:00:21;100240.03;;;8.32;100.00
45541;BME280;31265;49.680;8.608;2023-02-23T06:02:51;100237.63;;;8.29;100.00
45541;BME280;31265;49.680;8.608;2023-02-23T06:05:20;100242.41;;;8.28;100.00
45541;BME280;31265;49.680;8.608;2023-02-23T06:07:48;100236.34;;;8.30;100.00
45541;BME280;31265;49.680;8.608;2023-02-23T06:10:17;100232.31;;;8.31;100.00
45541;BME280;31265;49.680;8.608;2023-02-23T06:12:46;100243.53;;;8.33;100.00
45541;BME280;31265;49.680;8.608;2023-02-23T06:15:17;100242.78;;;8.32;100.00
45541;BME280;31265;49.680;8.608;2023-02-23T06:17:45;100243.53;;;8.33;100.00
45541;BME280;31265;49.680;8.608;2023-02-23T06:20:14;100249.81;;;8.33;100.00
45541;BME280;31265;49.680;8.608;2023-02-23T06:22:43;100240.41;;;8.36;100.00
45541;BME280;31265;49.680;8.608;2023-02-23T06:25:11;100253.16;;;8.39;100.00
45541;BME280;31265;49.680;8.608;2023-02-23T06:27:40;100248.38;;;8.40;100.00
45541;BME280;31265;49.680;8.608;2023-02-23T06:30:10;100252.06;;;8.43;100.00
45541;BME280;31265;49.680;8.608;2023-02-23T06:32:40;100255.56;;;8.43;100.00
45541;BME280;31265;49.680;8.608;2023-02-23T06:35:13;100254.28;;;8.44;100.00
45541;BME280;31265;49.680;8.608;2023-02-23T06:37:41;100253.19;;;8.47;100.00
45541;BME280;31265;49.680;8.608;2023-02-23T06:40:10;100261.69;;;8.49;100.00
45541;BME280;31265;49.680;8.608;2023-02-23T06:42:39;100263.50;;;8.47;100.00
45541;BME280;31265;49.680;8.608;2023-02-23T06:45:08;100257.97;;;8.47;100.00
45541;BME280;31265;49.680;8.608;2023-02-23T06:47:39;100276.22;;;8.50;100.00
45541;BME280;31265;49.680;8.608;2023-02-23T06:50:09;100270.91;;;8.52;100.00
45541;BME280;31265;49.680;8.608;2023-02-23T06:52:37;100267.59;;;8.53;100.00
45541;BME280;31265;49.680;8.608;2023-02-23T06:55:08;100272.56;;;8.55;100.00
45541;BME280;31265;49.680;8.608;2023-02-23T06:57:38;100273.47;;;8.57;100.00
45541;BME280;31265;49.680;8.608;2023-02-23T07:00:08;100276.25;;;8.65;100.00
45541;BME280;31265;49.680;8.608;2023-02-23T07:02:36;100273.50;;;8.65;100.00
45541;BME280;31265;49.680;8.608;2023-02-23T07:05:07;100280.53;;;8.66;100.00
45541;BME280;31265;49.680;8.608;2023-02-23T07:07:36;100288.44;;;8.70;100.00
45541;BME280;31265;49.680;8.608;2023-02-23T07:10:06;100299.72;;;8.72;100.00
45541;BME280;31265;49.680;8.608;2023-02-23T07:12:34;100288.84;;;8.74;100.00
45541;BME280;31265;49.680;8.608;2023-02-23T07:15:05;100291.59;;;8.74;100.00
45541;BME280;31265;49.680;8.608;2023-02-23T07:17:33;100293.06;;;8.75;100.00
45541;BME280;31265;49.680;8.608;2023-02-23T07:20:03;100286.59;;;8.72;100.00
45541;BME280;31265;49.680;8.608;2023-02-23T07:22:33;100296.75;;;8.70;100.00
45541;BME280;31265;49.680;8.608;2023-02-23T07:25:02;100304.31;;;8.77;100.00
45541;BME280;31265;49.680;8.608;2023-02-23T07:27:33;100302.28;;;8.77;100.00
45541;BME280;31265;49.680;8.608;2023-02-23T07:30:02;100301.38;;;8.75;100.00
45541;BME280;31265;49.680;8.608;2023-02-23T07:32:32;100299.00;;;8.79;100.00
45541;BME280;31265;49.680;8.608;2023-02-23T07:35:01;100301.22;;;8.88;100.00
45541;BME280;31265;49.680;8.608;2023-02-23T07:37:30;100299.00;;;8.94;100.00
45541;BME280;31265;49.680;8.608;2023-02-23T07:40:01;100299.19;;;8.96;100.00
45541;BME280;31265;49.680;8.608;2023-02-23T07:42:29;100305.13;;;9.00;100.00
45541;BME280;31265;49.680;8.608;2023-02-23T07:44:59;100304.19;;;8.98;100.00
45541;BME280;31265;49.680;8.608;2023-02-23T07:47:27;100311.78;;;9.05;100.00
45541;BME280;31265;49.680;8.608;2023-02-23T07:49:57;100309.56;;;9.11;100.00
45541;BME280;31265;49.680;8.608;2023-02-23T07:52:26;100300.69;;;9.13;100.00
45541;BME280;31265;49.680;8.608;2023-02-23T07:54:56;100305.31;;;9.18;100.00
45541;BME280;31265;49.680;8.608;2023-02-23T07:57:27;100305.31;;;9.25;100.00
45541;BME280;31265;49.680;8.608;2023-02-23T08:00:00;100309.00;;;9.28;100.00
45541;BME280;31265;49.680;8.608;2023-02-23T08:02:38;100310.66;;;9.23;100.00
45541;BME280;31265;49.680;8.608;2023-02-23T08:05:07;100311.97;;;9.30;100.00
45541;BME280;31265;49.680;8.608;2023-02-23T08:07:38;100314.53;;;9.36;100.00
45541;BME280;31265;49.680;8.608;2023-02-23T08:10:09;100311.22;;;9.45;100.00
45541;BME280;31265;49.680;8.608;2023-02-23T08:12:41;100310.66;;;9.46;100.00
45541;BME280;31265;49.680;8.608;2023-02-23T08:15:10;100317.88;;;9.50;100.00
45541;BME280;31265;49.680;8.608;2023-02-23T08:17:39;100317.69;;;9.47;100.00
45541;BME280;31265;49.680;8.608;2023-02-23T08:20:09;100318.97;;;9.46;100.00
45541;BME280;31265;49.680;8.608;2023-02-23T08:22:38;100315.66;;;9.40;100.00
45541;BME280;31265;49.680;8.608;2023-02-23T08:25:16;100316.19;;;9.46;100.00
45541;BME280;31265;49.680;8.608;2023-02-23T08:27:48;100315.47;;;9.46;100.00
45541;BME280;31265;49.680;8.608;2023-02-23T08:30:19;100320.06;;;9.51;100.00
45541;BME280;31265;49.680;8.608;2023-02-23T08:32:49;100320.81;;;9.44;100.00
45541;BME280;31265;49.680;8.608;2023-02-23T08:35:19;100321.38;;;9.50;100.00
45541;BME280;31265;49.680;8.608;2023-02-23T08:37:49;100323.78;;;9.46;100.00
45541;BME280;31265;49.680;8.608;2023-02-23T08:40:19;100329.31;;;9.46;100.00
45541;BME280;31265;49.680;8.608;2023-02-23T08:42:49;100325.78;;;9.53;100.00
45541;BME280;31265;49.680;8.608;2023-02-23T08:45:18;100324.50;;;9.54;100.00
45541;BME280;31265;49.680;8.608;2023-02-23T08:47:47;100323.78;;;9.46;100.00
45541;BME280;31265;49.680;8.608;2023-02-23T08:50:16;100333.72;;;9.49;100.00
45541;BME280;31265;49.680;8.608;2023-02-23T08:52:46;100322.28;;;9.53;100.00
45541;BME280;31265;49.680;8.608;2023-02-23T08:55:16;100328.56;;;9.53;100.00
45541;BME280;31265;49.680;8.608;2023-02-23T08:57:44;100328.38;;;9.59;100.00
45541;BME280;31265;49.680;8.608;2023-02-23T09:00:15;100328.00;;;9.70;100.00
45541;BME280;31265;49.680;8.608;2023-02-23T09:02:44;100320.22;;;9.76;100.00
45541;BME280;31265;49.680;8.608;2023-02-23T09:05:15;100328.94;;;9.65;100.00
45541;BME280;31265;49.680;8.608;2023-02-23T09:07:44;100326.69;;;9.71;100.00
45541;BME280;31265;49.680;8.608;2023-02-23T09:10:18;100323.19;;;9.78;100.00
45541;BME280;31265;49.680;8.608;2023-02-23T09:12:50;100328.53;;;9.76;100.00
45541;BME280;31265;49.680;8.608;2023-02-23T09:15:20;100332.22;;;9.94;100.00
45541;BME280;31265;49.680;8.608;2023-02-23T09:17:48;100328.84;;;10.03;100.00
45541;BME280;31265;49.680;8.608;2023-02-23T09:20:17;100335.13;;;10.04;100.00
45541;BME280;31265;49.680;8.608;2023-02-23T09:22:45;100334.56;;;10.13;100.00
45541;BME280;31265;49.680;8.608;2023-02-23T09:25:16;100338.22;;;10.23;100.00
45541;BME280;31265;49.680;8.608;2023-02-23T09:27:50;100342.13;;;10.28;100.00
45541;BME280;31265;49.680;8.608;2023-02-23T09:30:19;100336.56;;;10.28;100.00
45541;BME280;31265;49.680;8.608;2023-02-23T09:32:49;100337.66;;;10.32;100.00
45541;BME280;31265;49.680;8.608;2023-02-23T09:35:22;100341.69;;;10.47;100.00
45541;BME280;31265;49.680;8.608;2023-02-23T09:37:51;100337.88;;;10.67;100.00
45541;BME280;31265;49.680;8.608;2023-02-23T09:40:23;100343.06;;;10.71;100.00
45541;BME280;31265;49.680;8.608;2023-02-23T09:42:57;100334.28;;;10.82;100.00
45541;BME280;31265;49.680;8.608;2023-02-23T09:45:34;100337.78;;;10.83;100.00
45541;BME280;31265;49.680;8.608;2023-02-23T09:48:13;100335.56;;;10.89;100.00
45541;BME280;31265;49.680;8.608;2023-02-23T09:50:49;100337.56;;;11.21;100.00
45541;BME280;31265;49.680;8.608;2023-02-23T09:53:29;100330.75;;;11.14;100.00
45541;BME280;31265;49.680;8.608;2023-02-23T09:56:04;100342.19;;;11.44;100.00
45541;BME280;31265;49.680;8.608;2023-02-23T09:58:34;100335.88;;;11.86;100.00
45541;BME280;31265;49.680;8.608;2023-02-23T10:01:37;100334.81;;;11.81;100.00
45541;BME280;31265;49.680;8.608;2023-02-23T10:04:11;100340.84;;;11.95;100.00
45541;BME280;31265;49.680;8.608;2023-02-23T10:06:46;100343.03;;;12.14;100.00
45541;BME280;31265;49.680;8.608;2023-02-23T10:09:21;100345.00;;;12.21;100.00
45541;BME280;31265;49.680;8.608;2023-02-23T10:12:01;100338.88;;;12.05;100.00
45541;BME280;31265;49.680;8.608;2023-02-23T10:14:48;100338.38;;;11.99;100.00
45541;BME280;31265;49.680;8.608;2023-02-23T10:17:32;100341.47;;;11.86;100.00
45541;BME280;31265;49.680;8.608;2023-02-23T10:20:12;100342.09;;;11.76;100.00
45541;BME280;31265;49.680;8.608;2023-02-23T10:22:42;100345.13;;;11.71;100.00
45541;BME280;31265;49.680;8.608;2023-02-23T10:25:16;100350.91;;;11.90;100.00
45541;BME280;31265;49.680;8.608;2023-02-23T10:27:48;100352.88;;;11.97;100.00
45541;BME280;31265;49.680;8.608;2023-02-23T10:30:22;100345.81;;;11.96;100.00
45541;BME280;31265;49.680;8.608;2023-02-23T10:32:56;100347.63;;;12.19;100.00
45541;BME280;31265;49.680;8.608;2023-02-23T10:35:28;100342.31;;;12.13;100.00
45541;BME280;31265;49.680;8.608;2023-02-23T10:38:00;100345.47;;;12.44;100.00
45541;BME280;31265;49.680;8.608;2023-02-23T10:40:31;100339.00;;;12.86;100.00
45541;BME280;31265;49.680;8.608;2023-02-23T10:43:00;100348.44;;;13.38;100.00
45541;BME280;31265;49.680;8.608;2023-02-23T10:45:43;100347.69;;;13.27;100.00
45541;BME280;31265;49.680;8.608;2023-02-23T10:48:20;100341.88;;;13.06;100.00
45541;BME280;31265;49.680;8.608;2023-02-23T10:50:53;100347.22;;;13.21;100.00
45541;BME280;31265;49.680;8.608;2023-02-23T10:53:30;100346.47;;;13.58;100.00
45541;BME280;31265;49.680;8.608;2023-02-23T10:56:06;100340.47;;;13.71;100.00
45541;BME280;31265;49.680;8.608;2023-02-23T10:58:41;100337.81;;;13.63;100.00
45541;BME280;31265;49.680;8.608;2023-02-23T11:01:12;100344.34;;;13.02;100.00
45541;BME280;31265;49.680;8.608;2023-02-23T11:03:46;100343.66;;;12.84;100.00
45541;BME280;31265;49.680;8.608;2023-02-23T11:06:34;100339.69;;;13.14;100.00
45541;BME280;31265;49.680;8.608;2023-02-23T11:09:20;100346.44;;;13.11;100.00
45541;BME280;31265;49.680;8.608;2023-02-23T11:12:16;100354.41;;;13.61;100.00
45541;BME280;31265;49.680;8.608;2023-02-23T11:14:48;100349.09;;;13.46;100.00
45541;BME280;31265;49.680;8.608;2023-02-23T11:17:27;100339.59;;;13.22;100.00
45541;BME280;31265;49.680;8.608;2023-02-23T11:20:09;100344.63;;;12.96;100.00
45541;BME280;31265;49.680;8.608;2023-02-23T11:22:46;100342.16;;;13.10;100.00
45541;BME280;31265;49.680;8.608;2023-02-23T11:25:19;100331.56;;;12.99;100.00
45541;BME280;31265;49.680;8.608;2023-02-23T11:27:52;100333.81;;;13.47;100.00
45541;BME280;31265;49.680;8.608;2023-02-23T11:30:26;100331.78;;;13.57;100.00
45541;BME280;31265;49.680;8.608;2023-02-23T11:32:59;100329.78;;;13.87;100.00
45541;BME280;31265;49.680;8.608;2023-02-23T11:35:37;100324.66;;;14.03;100.00
45541;BME280;31265;49.680;8.608;2023-02-23T11:38:22;100327.00;;;14.16;100.00
45541;BME280;31265;49.680;8.608;2023-02-23T11:40:59;100333.31;;;14.36;100.00
45541;BME280;31265;49.680;8.608;2023-02-23T11:43:28;100321.97;;;14.44;100.00
45541;BME280;31265;49.680;8.608;2023-02-23T11:45:59;100319.50;;;14.38;100.00
45541;BME280;31265;49.680;8.608;2023-02-23T11:48:32;100320.66;;;14.64;100.00
45541;BME280;31265;49.680;8.608;2023-02-23T11:51:03;100313.31;;;14.49;100.00
45541;BME280;31265;49.680;8.608;2023-02-23T11:53:35;100316.13;;;14.20;100.00
45541;BME280;31265;49.680;8.608;2023-02-23T11:56:06;100314.78;;;13.82;100.00
45541;BME280;31265;49.680;8.608;2023-02-23T11:58:38;100314.00;;;13.33;100.00
45541;BME280;31265;49.680;8.608;2023-02-23T12:01:10;100314.91;;;13.45;100.00
45541;BME280;31265;49.680;8.608;2023-02-23T12:03:45;100305.03;;;13.34;100.00
45541;BME280;31265;49.680;8.608;2023-02-23T12:06:27;100311.34;;;13.35;100.00
45541;BME280;31265;49.680;8.608;2023-02-23T12:09:02;100311.34;;;13.35;100.00
45541;BME280;31265;49.680;8.608;2023-02-23T12:11:36;100312.00;;;13.82;100.00
45541;BME280;31265;49.680;8.608;2023-02-23T12:14:12;100301.88;;;13.87;100.00
45541;BME280;31265;49.680;8.608;2023-02-23T12:16:48;100302.50;;;13.85;100.00
45541;BME280;31265;49.680;8.608;2023-02-23T12:19:23;100296.03;;;14.02;100.00
45541;BME280;31265;49.680;8.608;2023-02-23T12:22:02;100300.72;;;13.90;100.00
45541;BME280;31265;49.680;8.608;2023-02-23T12:24:42;100294.84;;;13.86;100.00
45541;BME280;31265;49.680;8.608;2023-02-23T12:27:15;100295.72;;;14.08;100.00
45541;BME280;31265;49.680;8.608;2023-02-23T12:30:01;100292.63;;;13.84;100.00
45541;BME280;31265;49.680;8.608;2023-02-23T12:32:43;100286.03;;;13.89;100.00
45541;BME280;31265;49.680;8.608;2023-02-23T12:35:16;100289.84;;;13.94;100.00
45541;BME280;31265;49.680;8.608;2023-02-23T12:37:51;100287.50;;;14.00;100.00
45541;BME280;31265;49.680;8.608;2023-02-23T12:40:23;100288.63;;;14.36;100.00
45541;BME280;31265;49.680;8.608;2023-02-23T12:42:58;100283.06;;;14.55;100.00
45541;BME280;31265;49.680;8.608;2023-02-23T12:45:34;100282.72;;;14.61;100.00
45541;BME280;31265;49.680;8.608;2023-02-23T12:48:14;100273.63;;;14.60;100.00
45541;BME280;31265;49.680;8.608;2023-02-23T12:50:51;100271.06;;;14.84;100.00
45541;BME280;31265;49.680;8.608;2023-02-23T12:53:26;100277.06;;;14.90;100.00
45541;BME280;31265;49.680;8.608;2023-02-23T12:56:12;100275.16;;;14.83;100.00
45541;BME280;31265;49.680;8.608;2023-02-23T12:58:50;100275.75;;;14.91;100.00
45541;BME280;31265;49.680;8.608;2023-02-23T13:01:27;100275.59;;;14.89;100.00
45541;BME280;31265;49.680;8.608;2023-02-23T13:04:11;100266.31;;;14.55;100.00
45541;BME280;31265;49.680;8.608;2023-02-23T13:06:51;100269.72;;;14.34;100.00
45541;BME280;31265;49.680;8.608;2023-02-23T13:09:32;100270.56;;;14.47;100.00
45541;BME280;31265;49.680;8.608;2023-02-23T13:12:12;100267.06;;;14.27;100.00
45541;BME280;31265;49.680;8.608;2023-02-23T13:14:48;100269.72;;;14.25;100.00
45541;BME280;31265;49.680;8.608;2023-02-23T13:17:31;100266.38;;;13.77;100.00
45541;BME280;31265;49.680;8.608;2023-02-23T13:20:08;100261.84;;;13.72;100.00
45541;BME280;31265;49.680;8.608;2023-02-23T13:22:44;100266.09;;;13.93;100.00
45541;BME280;31265;49.680;8.608;2023-02-23T13:25:26;100270.47;;;13.76;100.00
45541;BME280;31265;49.680;8.608;2023-02-23T13:27:58;100266.97;;;13.86;100.00
45541;BME280;31265;49.680;8.608;2023-02-23T13:30:29;100255.81;;;13.95;100.00